sensor_id;sensor_type;location;lat;lon;timestamp;P1;durP1;ratioP1;P2;durP2;ratioP2
62903;SDS011;49000;50.698;13.322;2023-08-06T00:02:06;3.30;;;3.00;;
62903;SDS011;49000;50.698;13.322;2023-08-06T00:04:31;4.37;;;3.20;;
62903;SDS011;49000;50.698;13.322;2023-08-06T00:06:56;4.20;;;2.87;;
62903;SDS011;49000;50.698;13.322;2023-08-06T00:09:22;3.70;;;3.00;;
62903;SDS011;49000;50.698;13.322;2023-08-06T00:11:47;4.17;;;3.67;;
62903;SDS011;49000;50.698;13.322;2023-08-06T00:14:13;3.97;;;3.57;;
62903;SDS011;49000;50.698;13.322;2023-08-06T00:16:42;6.27;;;3.83;;
62903;SDS011;49000;50.698;13.322;2023-08-06T00:19:08;3.80;;;2.93;;
62903;SDS011;49000;50.698;13.322;2023-08-06T00:21:33;3.50;;;3.20;;
62903;SDS011;49000;50.698;13.322;2023-08-06T00:23:59;3.77;;;3.40;;
62903;SDS011;49000;50.698;13.322;2023-08-06T00:26:24;5.27;;;3.50;;
62903;SDS011;49000;50.698;13.322;2023-08-06T00:28:50;3.77;;;3.47;;
62903;SDS011;49000;50.698;13.322;2023-08-06T00:31:16;5.10;;;3.80;;
62903;SDS011;49000;50.698;13.322;2023-08-06T00:33:41;6.23;;;3.30;;
62903;SDS011;49000;50.698;13.322;2023-08-06T00:36:07;5.43;;;3.80;;
62903;SDS011;49000;50.698;13.322;2023-08-06T00:38:32;4.23;;;3.83;;
62903;SDS011;49000;50.698;13.322;2023-08-06T00:40:58;4.63;;;4.23;;
62903;SDS011;49000;50.698;13.322;2023-08-06T00:43:23;4.80;;;4.20;;
62903;SDS011;49000;50.698;13.322;2023-08-06T00:45:49;4.40;;;3.77;;
62903;SDS011;49000;50.698;13.322;2023-08-06T00:48:14;6.17;;;4.07;;
62903;SDS011;49000;50.698;13.322;2023-08-06T00:50:41;4.60;;;3.60;;
62903;SDS011;49000;50.698;13.322;2023-08-06T00:53:06;4.73;;;3.90;;
62903;SDS011;49000;50.698;13.322;2023-08-06T00:55:33;5.30;;;4.57;;
62903;SDS011;49000;50.698;13.322;2023-08-06T00:57:58;5.53;;;3.63;;
62903;SDS011;49000;50.698;13.322;2023-08-06T01:00:24;5.73;;;4.63;;
62903;SDS011;49000;50.698;13.322;2023-08-06T01:02:51;4.80;;;4.30;;
62903;SDS011;49000;50.698;13.322;2023-08-06T01:05:17;7.07;;;4.60;;
62903;SDS011;49000;50.698;13.322;2023-08-06T01:10:21;3.30;;;3.00;;
62903;SDS011;49000;50.698;13.322;2023-08-06T01:12:57;4.40;;;4.00;;
62903;SDS011;49000;50.698;13.322;2023-08-06T01:15:28;6.07;;;4.30;;
62903;SDS011;49000;50.698;13.322;2023-08-06T01:17:57;4.70;;;4.13;;
62903;SDS011;49000;50.698;13.322;2023-08-06T01:20:30;4.20;;;3.80;;
62903;SDS011;49000;50.698;13.322;2023-08-06T01:22:56;5.13;;;4.43;;
62903;SDS011;49000;50.698;13.322;2023-08-06T01:25:21;4.50;;;3.90;;
62903;SDS011;49000;50.698;13.322;2023-08-06T01:27:56;4.20;;;3.80;;
62903;SDS011;49000;50.698;13.322;2023-08-06T01:30:32;5.67;;;4.20;;
62903;SDS011;49000;50.698;13.322;2023-08-06T01:33:02;5.70;;;4.47;;
62903;SDS011;49000;50.698;13.322;2023-08-06T01:35:30;7.10;;;4.33;;
62903;SDS011;49000;50.698;13.322;2023-08-06T01:37:57;5.97;;;4.80;;
62903;SDS011;49000;50.698;13.322;2023-08-06T01:40:24;6.00;;;4.83;;
62903;SDS011;49000;50.698;13.322;2023-08-06T01:42:52;4.40;;;3.60;;
62903;SDS011;49000;50.698;13.322;2023-08-06T01:45:17;7.27;;;4.53;;
62903;SDS011;49000;50.698;13.322;2023-08-06T01:47:43;7.20;;;5.67;;
62903;SDS011;49000;50.698;13.322;2023-08-06T01:50:08;6.30;;;4.90;;
62903;SDS011;49000;50.698;13.322;2023-08-06T01:52:34;4.70;;;4.03;;
62903;SDS011;49000;50.698;13.322;2023-08-06T01:55:00;5.60;;;4.63;;
62903;SDS011;49000;50.698;13.322;2023-08-06T01:57:25;4.60;;;3.87;;
62903;SDS011;49000;50.698;13.322;2023-08-06T01:59:51;4.77;;;4.37;;
62903;SDS011;49000;50.698;13.322;2023-08-06T02:02:16;4.97;;;4.47;;
62903;SDS011;49000;50.698;13.322;2023-08-06T02:04:42;5.33;;;4.63;;
62903;SDS011;49000;50.698;13.322;2023-08-06T02:07:07;4.50;;;4.10;;
62903;SDS011;49000;50.698;13.322;2023-08-06T02:09:33;5.17;;;4.40;;
62903;SDS011;49000;50.698;13.322;2023-08-06T02:12:00;4.40;;;4.00;;
62903;SDS011;49000;50.698;13.322;2023-08-06T02:14:25;5.30;;;4.43;;
62903;SDS011;49000;50.698;13.322;2023-08-06T02:16:51;6.07;;;5.13;;
62903;SDS011;49000;50.698;13.322;2023-08-06T02:19:16;5.67;;;4.97;;
62903;SDS011;49000;50.698;13.322;2023-08-06T02:21:42;5.90;;;4.83;;
62903;SDS011;49000;50.698;13.322;2023-08-06T02:24:07;7.30;;;5.03;;
62903;SDS011;49000;50.698;13.322;2023-08-06T02:26:33;6.50;;;4.80;;
62903;SDS011;49000;50.698;13.322;2023-08-06T02:28:58;5.90;;;5.30;;
62903;SDS011;49000;50.698;13.322;2023-08-06T02:31:24;8.93;;;5.97;;
62903;SDS011;49000;50.698;13.322;2023-08-06T02:33:50;6.33;;;5.33;;
62903;SDS011;49000;50.698;13.322;2023-08-06T02:36:15;5.47;;;4.90;;
62903;SDS011;49000;50.698;13.322;2023-08-06T02:38:40;7.10;;;6.17;;
62903;SDS011;49000;50.698;13.322;2023-08-06T02:41:06;8.83;;;6.17;;
62903;SDS011;49000;50.698;13.322;2023-08-06T02:43:32;6.93;;;6.20;;
62903;SDS011;49000;50.698;13.322;2023-08-06T02:45:57;7.10;;;6.40;;
62903;SDS011;49000;50.698;13.322;2023-08-06T02:48:24;7.73;;;6.70;;
62903;SDS011;49000;50.698;13.322;2023-08-06T02:50:49;7.37;;;6.03;;
62903;SDS011;49000;50.698;13.322;2023-08-06T02:53:15;7.93;;;7.10;;
62903;SDS011;49000;50.698;13.322;2023-08-06T02:55:45;7.13;;;6.23;;
62903;SDS011;49000;50.698;13.322;2023-08-06T02:58:12;9.00;;;6.70;;
62903;SDS011;49000;50.698;13.322;2023-08-06T03:00:41;7.77;;;6.33;;
62903;SDS011;49000;50.698;13.322;2023-08-06T03:03:08;7.27;;;5.90;;
62903;SDS011;49000;50.698;13.322;2023-08-06T03:05:34;7.77;;;6.80;;
62903;SDS011;49000;50.698;13.322;2023-08-06T03:07:59;10.27;;;6.70;;
62903;SDS011;49000;50.698;13.322;2023-08-06T03:10:25;6.93;;;6.23;;
62903;SDS011;49000;50.698;13.322;2023-08-06T03:12:50;7.30;;;5.60;;
62903;SDS011;49000;50.698;13.322;2023-08-06T03:15:16;7.43;;;6.47;;
62903;SDS011;49000;50.698;13.322;2023-08-06T03:17:41;6.50;;;5.80;;
62903;SDS011;49000;50.698;13.322;2023-08-06T03:20:07;7.47;;;5.90;;
62903;SDS011;49000;50.698;13.322;2023-08-06T03:22:32;5.77;;;5.07;;
62903;SDS011;49000;50.698;13.322;2023-08-06T03:24:58;6.73;;;5.63;;
62903;SDS011;49000;50.698;13.322;2023-08-06T03:27:23;8.77;;;6.30;;
62903;SDS011;49000;50.698;13.322;2023-08-06T03:29:49;6.70;;;5.83;;
62903;SDS011;49000;50.698;13.322;2023-08-06T03:32:15;6.27;;;4.87;;
62903;SDS011;49000;50.698;13.322;2023-08-06T03:34:40;7.40;;;5.83;;
62903;SDS011;49000;50.698;13.322;2023-08-06T03:37:06;6.10;;;5.30;;
62903;SDS011;49000;50.698;13.322;2023-08-06T03:39:31;7.50;;;5.87;;
62903;SDS011;49000;50.698;13.322;2023-08-06T03:41:57;9.67;;;7.10;;
62903;SDS011;49000;50.698;13.322;2023-08-06T03:44:22;7.53;;;5.90;;
62903;SDS011;49000;50.698;13.322;2023-08-06T03:46:48;8.23;;;6.97;;
62903;SDS011;49000;50.698;13.322;2023-08-06T03:49:13;7.17;;;5.87;;
62903;SDS011;49000;50.698;13.322;2023-08-06T03:51:39;6.77;;;6.07;;
62903;SDS011;49000;50.698;13.322;2023-08-06T03:54:04;6.23;;;5.43;;
62903;SDS011;49000;50.698;13.322;2023-08-06T03:56:30;6.20;;;5.47;;
62903;SDS011;49000;50.698;13.322;2023-08-06T03:58:55;7.90;;;6.10;;
62903;SDS011;49000;50.698;13.322;2023-08-06T04:01:21;7.77;;;5.73;;
62903;SDS011;49000;50.698;13.322;2023-08-06T04:03:46;6.57;;;5.20;;
62903;SDS011;49000;50.698;13.322;2023-08-06T04:06:12;6.23;;;5.63;;
62903;SDS011;49000;50.698;13.322;2023-08-06T04:08:38;7.30;;;5.83;;
62903;SDS011;49000;50.698;13.322;2023-08-06T04:11:03;8.33;;;6.27;;
62903;SDS011;49000;50.698;13.322;2023-08-06T04:13:29;20.93;;;6.83;;
62903;SDS011;49000;50.698;13.322;2023-08-06T04:15:54;9.27;;;7.07;;
62903;SDS011;49000;50.698;13.322;2023-08-06T04:18:20;8.97;;;6.10;;
62903;SDS011;49000;50.698;13.322;2023-08-06T04:20:46;8.70;;;7.00;;
62903;SDS011;49000;50.698;13.322;2023-08-06T04:23:12;10.50;;;6.50;;
62903;SDS011;49000;50.698;13.322;2023-08-06T04:25:37;12.10;;;6.63;;
62903;SDS011;49000;50.698;13.322;2023-08-06T04:28:03;7.80;;;6.33;;
62903;SDS011;49000;50.698;13.322;2023-08-06T04:30:29;6.93;;;5.90;;
62903;SDS011;49000;50.698;13.322;2023-08-06T04:32:56;7.03;;;6.33;;
62903;SDS011;49000;50.698;13.322;2023-08-06T04:35:22;5.13;;;4.67;;
62903;SDS011;49000;50.698;13.322;2023-08-06T04:37:48;7.03;;;6.33;;
62903;SDS011;49000;50.698;13.322;2023-08-06T04:40:13;10.87;;;8.10;;
62903;SDS011;49000;50.698;13.322;2023-08-06T04:42:39;9.57;;;7.50;;
62903;SDS011;49000;50.698;13.322;2023-08-06T04:45:05;7.73;;;6.93;;
62903;SDS011;49000;50.698;13.322;2023-08-06T04:47:31;8.80;;;7.43;;
62903;SDS011;49000;50.698;13.322;2023-08-06T04:49:56;8.30;;;7.30;;
62903;SDS011;49000;50.698;13.322;2023-08-06T04:52:22;9.13;;;7.07;;
62903;SDS011;49000;50.698;13.322;2023-08-06T04:54:47;8.93;;;7.20;;
62903;SDS011;49000;50.698;13.322;2023-08-06T04:57:13;8.13;;;6.50;;
62903;SDS011;49000;50.698;13.322;2023-08-06T04:59:38;9.90;;;6.97;;
62903;SDS011;49000;50.698;13.322;2023-08-06T05:02:04;8.47;;;6.50;;
62903;SDS011;49000;50.698;13.322;2023-08-06T05:04:30;8.77;;;7.87;;
62903;SDS011;49000;50.698;13.322;2023-08-06T05:06:55;7.00;;;6.07;;
62903;SDS011;49000;50.698;13.322;2023-08-06T05:09:21;9.30;;;7.03;;
62903;SDS011;49000;50.698;13.322;2023-08-06T05:11:46;7.07;;;5.77;;
62903;SDS011;49000;50.698;13.322;2023-08-06T05:14:12;7.03;;;6.20;;
62903;SDS011;49000;50.698;13.322;2023-08-06T05:16:38;7.57;;;6.87;;
62903;SDS011;49000;50.698;13.322;2023-08-06T05:19:04;8.37;;;7.03;;
62903;SDS011;49000;50.698;13.322;2023-08-06T05:21:29;6.70;;;6.00;;
62903;SDS011;49000;50.698;13.322;2023-08-06T05:23:55;7.43;;;6.63;;
62903;SDS011;49000;50.698;13.322;2023-08-06T05:26:20;7.83;;;6.50;;
62903;SDS011;49000;50.698;13.322;2023-08-06T05:28:46;5.90;;;5.30;;
62903;SDS011;49000;50.698;13.322;2023-08-06T05:31:12;6.43;;;5.20;;
62903;SDS011;49000;50.698;13.322;2023-08-06T05:33:37;6.80;;;6.20;;
62903;SDS011;49000;50.698;13.322;2023-08-06T05:36:03;5.90;;;5.00;;
62903;SDS011;49000;50.698;13.322;2023-08-06T05:38:29;6.57;;;4.97;;
62903;SDS011;49000;50.698;13.322;2023-08-06T05:40:55;5.80;;;5.30;;
62903;SDS011;49000;50.698;13.322;2023-08-06T05:43:21;5.07;;;4.57;;
62903;SDS011;49000;50.698;13.322;2023-08-06T05:45:48;4.80;;;4.27;;
62903;SDS011;49000;50.698;13.322;2023-08-06T05:48:15;4.90;;;4.40;;
62903;SDS011;49000;50.698;13.322;2023-08-06T05:50:40;4.30;;;3.90;;
62903;SDS011;49000;50.698;13.322;2023-08-06T05:53:06;4.87;;;3.10;;
62903;SDS011;49000;50.698;13.322;2023-08-06T05:55:32;3.90;;;3.43;;
62903;SDS011;49000;50.698;13.322;2023-08-06T05:57:58;4.23;;;3.27;;
62903;SDS011;49000;50.698;13.322;2023-08-06T06:00:23;3.47;;;3.17;;
62903;SDS011;49000;50.698;13.322;2023-08-06T06:02:49;3.90;;;3.47;;
62903;SDS011;49000;50.698;13.322;2023-08-06T06:05:14;3.57;;;3.27;;
62903;SDS011;49000;50.698;13.322;2023-08-06T06:07:40;5.77;;;3.20;;
62903;SDS011;49000;50.698;13.322;2023-08-06T06:10:06;5.73;;;3.37;;
62903;SDS011;49000;50.698;13.322;2023-08-06T06:12:32;3.23;;;2.93;;
62903;SDS011;49000;50.698;13.322;2023-08-06T06:14:57;3.50;;;3.20;;
62903;SDS011;49000;50.698;13.322;2023-08-06T06:17:23;3.70;;;3.40;;
62903;SDS011;49000;50.698;13.322;2023-08-06T06:19:48;3.10;;;2.80;;
62903;SDS011;49000;50.698;13.322;2023-08-06T06:22:14;3.30;;;2.93;;
62903;SDS011;49000;50.698;13.322;2023-08-06T06:24:39;2.93;;;2.73;;
62903;SDS011;49000;50.698;13.322;2023-08-06T06:27:05;3.30;;;3.00;;
62903;SDS011;49000;50.698;13.322;2023-08-06T06:29:31;2.97;;;2.67;;
62903;SDS011;49000;50.698;13.322;2023-08-06T06:31:56;3.67;;;3.23;;
62903;SDS011;49000;50.698;13.322;2023-08-06T06:34:22;2.53;;;2.33;;
62903;SDS011;49000;50.698;13.322;2023-08-06T06:36:47;2.40;;;2.20;;
62903;SDS011;49000;50.698;13.322;2023-08-06T06:39:13;2.37;;;2.17;;
62903;SDS011;49000;50.698;13.322;2023-08-06T06:41:38;3.17;;;2.87;;
62903;SDS011;49000;50.698;13.322;2023-08-06T06:44:05;3.23;;;2.57;;
62903;SDS011;49000;50.698;13.322;2023-08-06T06:46:30;3.90;;;2.60;;
62903;SDS011;49000;50.698;13.322;2023-08-06T06:48:56;4.07;;;2.47;;
62903;SDS011;49000;50.698;13.322;2023-08-06T06:51:22;2.73;;;2.20;;
62903;SDS011;49000;50.698;13.322;2023-08-06T06:53:47;2.17;;;1.97;;
62903;SDS011;49000;50.698;13.322;2023-08-06T06:56:13;2.50;;;2.30;;
62903;SDS011;49000;50.698;13.322;2023-08-06T06:58:38;2.40;;;2.20;;
62903;SDS011;49000;50.698;13.322;2023-08-06T07:01:05;2.87;;;2.47;;
62903;SDS011;49000;50.698;13.322;2023-08-06T07:03:31;2.33;;;2.13;;
62903;SDS011;49000;50.698;13.322;2023-08-06T07:05:57;2.80;;;2.20;;
62903;SDS011;49000;50.698;13.322;2023-08-06T07:08:24;2.30;;;1.90;;
62903;SDS011;49000;50.698;13.322;2023-08-06T07:10:49;2.93;;;1.90;;
62903;SDS011;49000;50.698;13.322;2023-08-06T07:13:15;2.63;;;2.43;;
62903;SDS011;49000;50.698;13.322;2023-08-06T07:15:41;2.70;;;2.13;;
62903;SDS011;49000;50.698;13.322;2023-08-06T07:18:07;1.80;;;1.70;;
62903;SDS011;49000;50.698;13.322;2023-08-06T07:20:32;4.47;;;2.33;;
62903;SDS011;49000;50.698;13.322;2023-08-06T07:22:59;2.30;;;2.10;;
62903;SDS011;49000;50.698;13.322;2023-08-06T07:25:25;2.90;;;2.00;;
62903;SDS011;49000;50.698;13.322;2023-08-06T07:27:51;1.87;;;1.77;;
62903;SDS011;49000;50.698;13.322;2023-08-06T07:30:16;2.53;;;2.30;;
62903;SDS011;49000;50.698;13.322;2023-08-06T07:32:42;2.37;;;2.17;;
62903;SDS011;49000;50.698;13.322;2023-08-06T07:35:07;4.00;;;2.20;;
62903;SDS011;49000;50.698;13.322;2023-08-06T07:37:37;2.37;;;2.10;;
62903;SDS011;49000;50.698;13.322;2023-08-06T07:40:06;2.20;;;2.00;;
62903;SDS011;49000;50.698;13.322;2023-08-06T07:42:31;2.73;;;2.00;;
62903;SDS011;49000;50.698;13.322;2023-08-06T07:44:57;2.20;;;2.00;;
62903;SDS011;49000;50.698;13.322;2023-08-06T07:47:23;3.10;;;2.00;;
62903;SDS011;49000;50.698;13.322;2023-08-06T07:49:49;1.90;;;1.80;;
62903;SDS011;49000;50.698;13.322;2023-08-06T07:52:15;2.53;;;2.00;;
62903;SDS011;49000;50.698;13.322;2023-08-06T07:54:41;2.20;;;2.00;;
62903;SDS011;49000;50.698;13.322;2023-08-06T07:57:06;2.70;;;2.33;;
62903;SDS011;49000;50.698;13.322;2023-08-06T07:59:32;2.50;;;2.27;;
62903;SDS011;49000;50.698;13.322;2023-08-06T08:01:58;2.23;;;1.90;;
62903;SDS011;49000;50.698;13.322;2023-08-06T08:04:25;2.43;;;2.23;;
62903;SDS011;49000;50.698;13.322;2023-08-06T08:06:50;2.73;;;2.33;;
62903;SDS011;49000;50.698;13.322;2023-08-06T08:09:16;3.70;;;2.63;;
62903;SDS011;49000;50.698;13.322;2023-08-06T08:11:41;2.50;;;2.13;;
62903;SDS011;49000;50.698;13.322;2023-08-06T08:14:07;2.73;;;1.77;;
62903;SDS011;49000;50.698;13.322;2023-08-06T08:16:33;2.70;;;2.30;;
62903;SDS011;49000;50.698;13.322;2023-08-06T08:18:58;2.47;;;2.23;;
62903;SDS011;49000;50.698;13.322;2023-08-06T08:21:24;2.57;;;2.10;;
62903;SDS011;49000;50.698;13.322;2023-08-06T08:23:50;2.40;;;2.20;;
62903;SDS011;49000;50.698;13.322;2023-08-06T08:26:17;2.20;;;2.00;;
62903;SDS011;49000;50.698;13.322;2023-08-06T08:28:42;2.23;;;2.03;;
62903;SDS011;49000;50.698;13.322;2023-08-06T08:31:08;2.63;;;2.43;;
62903;SDS011;49000;50.698;13.322;2023-08-06T08:33:34;3.30;;;3.00;;
62903;SDS011;49000;50.698;13.322;2023-08-06T08:36:00;3.07;;;2.77;;
62903;SDS011;49000;50.698;13.322;2023-08-06T08:38:25;3.40;;;2.90;;
62903;SDS011;49000;50.698;13.322;2023-08-06T08:40:51;2.67;;;2.47;;
62903;SDS011;49000;50.698;13.322;2023-08-06T08:43:20;2.90;;;2.60;;
62903;SDS011;49000;50.698;13.322;2023-08-06T08:45:47;5.33;;;3.07;;
62903;SDS011;49000;50.698;13.322;2023-08-06T08:48:15;3.57;;;2.90;;
62903;SDS011;49000;50.698;13.322;2023-08-06T08:50:44;3.93;;;2.70;;
62903;SDS011;49000;50.698;13.322;2023-08-06T08:53:11;4.07;;;2.80;;
62903;SDS011;49000;50.698;13.322;2023-08-06T08:55:38;3.03;;;2.83;;
62903;SDS011;49000;50.698;13.322;2023-08-06T08:58:05;2.80;;;2.60;;
62903;SDS011;49000;50.698;13.322;2023-08-06T09:00:31;4.10;;;3.00;;
62903;SDS011;49000;50.698;13.322;2023-08-06T09:02:57;3.00;;;2.70;;
62903;SDS011;49000;50.698;13.322;2023-08-06T09:05:25;2.70;;;2.40;;
62903;SDS011;49000;50.698;13.322;2023-08-06T09:07:53;3.90;;;2.47;;
62903;SDS011;49000;50.698;13.322;2023-08-06T09:10:22;2.40;;;2.20;;
62903;SDS011;49000;50.698;13.322;2023-08-06T09:12:50;3.17;;;2.20;;
62903;SDS011;49000;50.698;13.322;2023-08-06T09:15:16;3.10;;;2.27;;
62903;SDS011;49000;50.698;13.322;2023-08-06T09:17:41;2.60;;;2.20;;
62903;SDS011;49000;50.698;13.322;2023-08-06T09:20:11;2.80;;;2.60;;
62903;SDS011;49000;50.698;13.322;2023-08-06T09:22:37;2.63;;;2.30;;
62903;SDS011;49000;50.698;13.322;2023-08-06T09:25:03;2.37;;;2.17;;
62903;SDS011;49000;50.698;13.322;2023-08-06T09:27:34;2.30;;;2.10;;
62903;SDS011;49000;50.698;13.322;2023-08-06T09:30:00;3.53;;;2.57;;
62903;SDS011;49000;50.698;13.322;2023-08-06T09:32:25;2.43;;;2.17;;
62903;SDS011;49000;50.698;13.322;2023-08-06T09:34:55;2.53;;;2.20;;
62903;SDS011;49000;50.698;13.322;2023-08-06T09:37:21;2.30;;;2.10;;
62903;SDS011;49000;50.698;13.322;2023-08-06T09:39:47;2.20;;;2.00;;
62903;SDS011;49000;50.698;13.322;2023-08-06T09:42:14;3.90;;;2.30;;
62903;SDS011;49000;50.698;13.322;2023-08-06T09:44:40;3.00;;;2.40;;
62903;SDS011;49000;50.698;13.322;2023-08-06T09:47:06;2.40;;;2.20;;
62903;SDS011;49000;50.698;13.322;2023-08-06T09:51:57;2.13;;;1.93;;
62903;SDS011;49000;50.698;13.322;2023-08-06T09:54:24;3.77;;;2.23;;
62903;SDS011;49000;50.698;13.322;2023-08-06T09:56:52;3.20;;;2.10;;
62903;SDS011;49000;50.698;13.322;2023-08-06T09:59:18;2.70;;;2.10;;
62903;SDS011;49000;50.698;13.322;2023-08-06T10:01:44;2.80;;;2.30;;
62903;SDS011;49000;50.698;13.322;2023-08-06T10:04:11;2.30;;;2.10;;
62903;SDS011;49000;50.698;13.322;2023-08-06T10:06:41;3.13;;;2.50;;
62903;SDS011;49000;50.698;13.322;2023-08-06T10:09:07;2.83;;;2.53;;
62903;SDS011;49000;50.698;13.322;2023-08-06T10:11:34;2.80;;;2.30;;
62903;SDS011;49000;50.698;13.322;2023-08-06T10:14:04;4.30;;;2.43;;
62903;SDS011;49000;50.698;13.322;2023-08-06T10:16:34;3.03;;;2.37;;
62903;SDS011;49000;50.698;13.322;2023-08-06T10:19:01;3.20;;;2.90;;
62903;SDS011;49000;50.698;13.322;2023-08-06T10:21:30;2.80;;;2.60;;
62903;SDS011;49000;50.698;13.322;2023-08-06T10:23:56;3.17;;;2.53;;
62903;SDS011;49000;50.698;13.322;2023-08-06T10:26:28;4.13;;;2.83;;
62903;SDS011;49000;50.698;13.322;2023-08-06T10:28:55;4.70;;;2.50;;
62903;SDS011;49000;50.698;13.322;2023-08-06T10:34:19;3.83;;;2.33;;
62903;SDS011;49000;50.698;13.322;2023-08-06T10:36:44;4.03;;;2.43;;
62903;SDS011;49000;50.698;13.322;2023-08-06T10:39:13;2.60;;;2.30;;
62903;SDS011;49000;50.698;13.322;2023-08-06T10:41:39;4.40;;;2.15;;
62903;SDS011;49000;50.698;13.322;2023-08-06T10:44:08;2.57;;;2.13;;
62903;SDS011;49000;50.698;13.322;2023-08-06T10:46:34;2.50;;;2.30;;
62903;SDS011;49000;50.698;13.322;2023-08-06T10:49:00;3.03;;;2.40;;
62903;SDS011;49000;50.698;13.322;2023-08-06T10:51:26;2.78;;;2.35;;
62903;SDS011;49000;50.698;13.322;2023-08-06T10:53:52;2.63;;;2.42;;
62903;SDS011;49000;50.698;13.322;2023-08-06T10:56:19;3.22;;;2.20;;
62903;SDS011;49000;50.698;13.322;2023-08-06T10:58:56;2.70;;;2.07;;
62903;SDS011;49000;50.698;13.322;2023-08-06T11:01:22;2.47;;;2.13;;
62903;SDS011;49000;50.698;13.322;2023-08-06T11:03:49;3.33;;;2.07;;
62903;SDS011;49000;50.698;13.322;2023-08-06T11:06:19;2.53;;;2.00;;
62903;SDS011;49000;50.698;13.322;2023-08-06T11:08:49;2.40;;;1.90;;
62903;SDS011;49000;50.698;13.322;2023-08-06T11:11:15;2.22;;;2.03;;
62903;SDS011;49000;50.698;13.322;2023-08-06T11:13:42;3.00;;;1.70;;
62903;SDS011;49000;50.698;13.322;2023-08-06T11:16:24;3.07;;;2.10;;
62903;SDS011;49000;50.698;13.322;2023-08-06T11:18:50;2.90;;;2.20;;
62903;SDS011;49000;50.698;13.322;2023-08-06T11:21:22;3.73;;;2.10;;
62903;SDS011;49000;50.698;13.322;2023-08-06T11:23:49;2.17;;;1.90;;
62903;SDS011;49000;50.698;13.322;2023-08-06T11:26:19;2.20;;;2.00;;
62903;SDS011;49000;50.698;13.322;2023-08-06T11:28:45;2.28;;;2.03;;
62903;SDS011;49000;50.698;13.322;2023-08-06T11:31:18;2.38;;;1.85;;
62903;SDS011;49000;50.698;13.322;2023-08-06T11:33:47;2.47;;;1.90;;
62903;SDS011;49000;50.698;13.322;2023-08-06T11:36:14;3.72;;;1.73;;
62903;SDS011;49000;50.698;13.322;2023-08-06T11:38:40;2.10;;;1.80;;
62903;SDS011;49000;50.698;13.322;2023-08-06T11:41:06;3.08;;;1.50;;
62903;SDS011;49000;50.698;13.322;2023-08-06T11:43:32;2.13;;;1.63;;
62903;SDS011;49000;50.698;13.322;2023-08-06T11:45:58;2.47;;;1.90;;
62903;SDS011;49000;50.698;13.322;2023-08-06T11:48:25;2.17;;;1.52;;
62903;SDS011;49000;50.698;13.322;2023-08-06T11:50:53;5.68;;;2.05;;
62903;SDS011;49000;50.698;13.322;2023-08-06T11:53:19;2.28;;;1.42;;
62903;SDS011;49000;50.698;13.322;2023-08-06T11:55:45;1.73;;;1.60;;
62903;SDS011;49000;50.698;13.322;2023-08-06T11:58:11;1.80;;;1.65;;
62903;SDS011;49000;50.698;13.322;2023-08-06T12:00:39;3.05;;;2.10;;
62903;SDS011;49000;50.698;13.322;2023-08-06T12:03:05;4.65;;;1.90;;
62903;SDS011;49000;50.698;13.322;2023-08-06T12:05:30;1.42;;;1.33;;
62903;SDS011;49000;50.698;13.322;2023-08-06T12:07:58;2.03;;;1.52;;
62903;SDS011;49000;50.698;13.322;2023-08-06T12:10:26;2.75;;;1.58;;
62903;SDS011;49000;50.698;13.322;2023-08-06T12:12:53;2.33;;;1.30;;
62903;SDS011;49000;50.698;13.322;2023-08-06T12:15:19;2.45;;;1.80;;
62903;SDS011;49000;50.698;13.322;2023-08-06T12:17:44;2.03;;;1.70;;
62903;SDS011;49000;50.698;13.322;2023-08-06T12:20:10;1.63;;;1.45;;
62903;SDS011;49000;50.698;13.322;2023-08-06T12:22:35;2.40;;;1.48;;
62903;SDS011;49000;50.698;13.322;2023-08-06T12:25:08;2.20;;;1.73;;
62903;SDS011;49000;50.698;13.322;2023-08-06T12:27:37;1.70;;;1.60;;
62903;SDS011;49000;50.698;13.322;2023-08-06T12:30:04;1.58;;;1.48;;
62903;SDS011;49000;50.698;13.322;2023-08-06T12:32:30;2.70;;;1.40;;
62903;SDS011;49000;50.698;13.322;2023-08-06T12:34:56;3.08;;;1.90;;
62903;SDS011;49000;50.698;13.322;2023-08-06T12:37:22;1.40;;;1.30;;
62903;SDS011;49000;50.698;13.322;2023-08-06T12:39:48;2.22;;;1.55;;
62903;SDS011;49000;50.698;13.322;2023-08-06T12:42:14;1.70;;;1.50;;
62903;SDS011;49000;50.698;13.322;2023-08-06T12:44:39;2.63;;;1.70;;
62903;SDS011;49000;50.698;13.322;2023-08-06T12:47:06;2.05;;;1.67;;
62903;SDS011;49000;50.698;13.322;2023-08-06T12:49:32;1.75;;;1.42;;
62903;SDS011;49000;50.698;13.322;2023-08-06T12:51:58;1.80;;;1.40;;
62903;SDS011;49000;50.698;13.322;2023-08-06T12:54:24;2.75;;;1.63;;
62903;SDS011;49000;50.698;13.322;2023-08-06T12:56:50;1.63;;;1.50;;
62903;SDS011;49000;50.698;13.322;2023-08-06T12:59:16;2.50;;;1.60;;
62903;SDS011;49000;50.698;13.322;2023-08-06T13:01:42;2.63;;;1.83;;
62903;SDS011;49000;50.698;13.322;2023-08-06T13:04:09;1.70;;;1.60;;
62903;SDS011;49000;50.698;13.322;2023-08-06T13:06:34;1.77;;;1.55;;
62903;SDS011;49000;50.698;13.322;2023-08-06T13:09:04;3.42;;;1.50;;
62903;SDS011;49000;50.698;13.322;2023-08-06T13:11:31;1.63;;;1.52;;
62903;SDS011;49000;50.698;13.322;2023-08-06T13:14:04;3.25;;;1.85;;
62903;SDS011;49000;50.698;13.322;2023-08-06T13:16:32;2.17;;;1.50;;
62903;SDS011;49000;50.698;13.322;2023-08-06T13:18:58;1.50;;;1.40;;
62903;SDS011;49000;50.698;13.322;2023-08-06T13:21:24;4.57;;;1.70;;
62903;SDS011;49000;50.698;13.322;2023-08-06T13:23:55;3.45;;;1.90;;
62903;SDS011;49000;50.698;13.322;2023-08-06T13:26:21;2.45;;;1.73;;
62903;SDS011;49000;50.698;13.322;2023-08-06T13:28:46;1.98;;;1.73;;
62903;SDS011;49000;50.698;13.322;2023-08-06T13:31:14;2.35;;;1.73;;
62903;SDS011;49000;50.698;13.322;2023-08-06T13:33:39;1.67;;;1.50;;
62903;SDS011;49000;50.698;13.322;2023-08-06T13:36:05;2.97;;;1.50;;
62903;SDS011;49000;50.698;13.322;2023-08-06T13:38:30;2.17;;;1.55;;
62903;SDS011;49000;50.698;13.322;2023-08-06T13:40:56;1.90;;;1.48;;
62903;SDS011;49000;50.698;13.322;2023-08-06T13:43:21;3.17;;;1.70;;
62903;SDS011;49000;50.698;13.322;2023-08-06T13:45:47;1.80;;;1.45;;
62903;SDS011;49000;50.698;13.322;2023-08-06T13:48:12;1.70;;;1.40;;
62903;SDS011;49000;50.698;13.322;2023-08-06T13:50:38;2.10;;;1.58;;
62903;SDS011;49000;50.698;13.322;2023-08-06T13:53:04;2.10;;;1.63;;
62903;SDS011;49000;50.698;13.322;2023-08-06T13:55:29;1.52;;;1.35;;
62903;SDS011;49000;50.698;13.322;2023-08-06T13:57:55;1.80;;;1.58;;
62903;SDS011;49000;50.698;13.322;2023-08-06T14:00:20;3.03;;;1.60;;
62903;SDS011;49000;50.698;13.322;2023-08-06T14:02:46;4.63;;;1.70;;
62903;SDS011;49000;50.698;13.322;2023-08-06T14:05:12;1.35;;;1.25;;
62903;SDS011;49000;50.698;13.322;2023-08-06T14:07:37;2.40;;;1.58;;
62903;SDS011;49000;50.698;13.322;2023-08-06T14:10:03;1.98;;;1.50;;
62903;SDS011;49000;50.698;13.322;2023-08-06T14:12:29;1.88;;;1.50;;
62903;SDS011;49000;50.698;13.322;2023-08-06T14:14:55;2.05;;;1.60;;
62903;SDS011;49000;50.698;13.322;2023-08-06T14:17:21;1.50;;;1.40;;
62903;SDS011;49000;50.698;13.322;2023-08-06T14:19:46;2.67;;;1.50;;
62903;SDS011;49000;50.698;13.322;2023-08-06T14:22:12;1.85;;;1.40;;
62903;SDS011;49000;50.698;13.322;2023-08-06T14:24:37;1.90;;;1.58;;
62903;SDS011;49000;50.698;13.322;2023-08-06T14:27:03;1.70;;;1.60;;
62903;SDS011;49000;50.698;13.322;2023-08-06T14:29:31;2.55;;;1.50;;
62903;SDS011;49000;50.698;13.322;2023-08-06T14:31:56;2.47;;;1.35;;
62903;SDS011;49000;50.698;13.322;2023-08-06T14:34:22;1.90;;;1.40;;
62903;SDS011;49000;50.698;13.322;2023-08-06T14:36:47;3.22;;;1.40;;